sensor_id;sensor_type;location;lat;lon;timestamp;temperature;humidity
19829;DHT22;10075;50.924;4.396;2024-02-04T00:01:44;11.30;99.90
19829;DHT22;10075;50.924;4.396;2024-02-04T00:04:13;11.30;99.90
19829;DHT22;10075;50.924;4.396;2024-02-04T00:06:40;11.30;99.90
19829;DHT22;10075;50.924;4.396;2024-02-04T00:09:07;11.30;99.90
19829;DHT22;10075;50.924;4.396;2024-02-04T00:11:34;11.30;99.90
19829;DHT22;10075;50.924;4.396;2024-02-04T00:14:01;11.20;99.90
19829;DHT22;10075;50.924;4.396;2024-02-04T00:16:28;11.20;99.90
19829;DHT22;10075;50.924;4.396;2024-02-04T00:18:56;11.40;99.90
19829;DHT22;10075;50.924;4.396;2024-02-04T00:21:24;11.30;99.90
19829;DHT22;10075;50.924;4.396;2024-02-04T00:23:51;11.40;99.90
19829;DHT22;10075;50.924;4.396;2024-02-04T00:26:18;11.40;99.90
19829;DHT22;10075;50.924;4.396;2024-02-04T00:28:45;11.30;99.90
19829;DHT22;10075;50.924;4.396;2024-02-04T00:31:12;11.40;99.90
19829;DHT22;10075;50.924;4.396;2024-02-04T00:33:39;11.40;99.90
19829;DHT22;10075;50.924;4.396;2024-02-04T00:36:06;11.30;99.90
19829;DHT22;10075;50.924;4.396;2024-02-04T00:38:34;11.40;99.90
19829;DHT22;10075;50.924;4.396;2024-02-04T00:41:01;11.40;99.90
19829;DHT22;10075;50.924;4.396;2024-02-04T00:43:29;11.40;99.90
19829;DHT22;10075;50.924;4.396;2024-02-04T00:45:56;11.40;99.90
19829;DHT22;10075;50.924;4.396;2024-02-04T00:48:25;11.30;99.90
19829;DHT22;10075;50.924;4.396;2024-02-04T00:50:52;11.50;99.90
19829;DHT22;10075;50.924;4.396;2024-02-04T00:53:19;11.50;99.90
19829;DHT22;10075;50.924;4.396;2024-02-04T00:55:47;11.30;99.90
19829;DHT22;10075;50.924;4.396;2024-02-04T00:58:14;11.10;99.90
19829;DHT22;10075;50.924;4.396;2024-02-04T01:00:41;11.10;99.90
19829;DHT22;10075;50.924;4.396;2024-02-04T01:03:09;11.10;99.90
19829;DHT22;10075;50.924;4.396;2024-02-04T01:05:36;11.20;99.90
19829;DHT22;10075;50.924;4.396;2024-02-04T01:08:03;11.10;99.90
19829;DHT22;10075;50.924;4.396;2024-02-04T01:10:30;11.10;99.90
19829;DHT22;10075;50.924;4.396;2024-02-04T01:12:58;11.20;99.90
19829;DHT22;10075;50.924;4.396;2024-02-04T01:15:25;11.30;99.90
19829;DHT22;10075;50.924;4.396;2024-02-04T01:17:52;11.20;99.90
19829;DHT22;10075;50.924;4.396;2024-02-04T01:20:19;11.20;99.90
19829;DHT22;10075;50.924;4.396;2024-02-04T01:22:46;11.10;99.90
19829;DHT22;10075;50.924;4.396;2024-02-04T01:25:13;11.30;99.90
19829;DHT22;10075;50.924;4.396;2024-02-04T01:27:40;11.40;99.90
19829;DHT22;10075;50.924;4.396;2024-02-04T01:30:09;11.40;99.90
19829;DHT22;10075;50.924;4.396;2024-02-04T01:32:36;11.30;99.90
19829;DHT22;10075;50.924;4.396;2024-02-04T01:35:04;11.20;99.90
19829;DHT22;10075;50.924;4.396;2024-02-04T01:37:31;11.30;99.90
19829;DHT22;10075;50.924;4.396;2024-02-04T01:39:58;11.20;99.90
19829;DHT22;10075;50.924;4.396;2024-02-04T01:42:25;11.20;99.90
19829;DHT22;10075;50.924;4.396;2024-02-04T01:44:52;11.10;99.90
19829;DHT22;10075;50.924;4.396;2024-02-04T01:47:20;11.10;99.90
19829;DHT22;10075;50.924;4.396;2024-02-04T01:49:47;11.10;99.90
19829;DHT22;10075;50.924;4.396;2024-02-04T01:52:14;11.00;99.90
19829;DHT22;10075;50.924;4.396;2024-02-04T01:54:42;11.10;99.90
19829;DHT22;10075;50.924;4.396;2024-02-04T01:57:10;11.10;99.90
19829;DHT22;10075;50.924;4.396;2024-02-04T01:59:39;11.20;99.90
19829;DHT22;10075;50.924;4.396;2024-02-04T02:02:06;11.40;99.90
19829;DHT22;10075;50.924;4.396;2024-02-04T02:04:35;11.40;99.90
19829;DHT22;10075;50.924;4.396;2024-02-04T02:07:02;11.40;99.90
19829;DHT22;10075;50.924;4.396;2024-02-04T02:09:29;11.30;99.90
19829;DHT22;10075;50.924;4.396;2024-02-04T02:12:03;11.20;99.90
19829;DHT22;10075;50.924;4.396;2024-02-04T02:14:35;11.30;99.90
19829;DHT22;10075;50.924;4.396;2024-02-04T02:17:07;11.30;99.90
19829;DHT22;10075;50.924;4.396;2024-02-04T02:19:47;11.30;99.90
19829;DHT22;10075;50.924;4.396;2024-02-04T02:22:26;11.40;99.90
19829;DHT22;10075;50.924;4.396;2024-02-04T02:24:57;11.50;99.90
19829;DHT22;10075;50.924;4.396;2024-02-04T02:27:24;11.40;99.90
19829;DHT22;10075;50.924;4.396;2024-02-04T02:29:51;11.30;99.90
19829;DHT22;10075;50.924;4.396;2024-02-04T02:32:19;11.30;99.90
19829;DHT22;10075;50.924;4.396;2024-02-04T02:34:46;11.30;99.90
19829;DHT22;10075;50.924;4.396;2024-02-04T02:37:22;11.30;99.90
19829;DHT22;10075;50.924;4.396;2024-02-04T02:39:58;11.40;99.90
19829;DHT22;10075;50.924;4.396;2024-02-04T02:42:26;11.30;99.90
19829;DHT22;10075;50.924;4.396;2024-02-04T02:44:54;11.40;99.90
19829;DHT22;10075;50.924;4.396;2024-02-04T02:47:22;11.40;99.90
19829;DHT22;10075;50.924;4.396;2024-02-04T02:49:51;11.30;99.90
19829;DHT22;10075;50.924;4.396;2024-02-04T02:52:20;11.30;99.90
19829;DHT22;10075;50.924;4.396;2024-02-04T02:54:47;11.30;99.90
19829;DHT22;10075;50.924;4.396;2024-02-04T02:57:15;11.40;99.90
19829;DHT22;10075;50.924;4.396;2024-02-04T02:59:42;11.40;99.90
19829;DHT22;10075;50.924;4.396;2024-02-04T03:02:09;11.40;99.90
19829;DHT22;10075;50.924;4.396;2024-02-04T03:04:36;11.50;99.90
19829;DHT22;10075;50.924;4.396;2024-02-04T03:07:04;11.50;99.90
19829;DHT22;10075;50.924;4.396;2024-02-04T03:09:33;11.30;99.90
19829;DHT22;10075;50.924;4.396;2024-02-04T03:11:59;11.30;99.90
19829;DHT22;10075;50.924;4.396;2024-02-04T03:14:28;11.40;99.90
19829;DHT22;10075;50.924;4.396;2024-02-04T03:16:55;11.30;99.90
19829;DHT22;10075;50.924;4.396;2024-02-04T03:19:22;11.40;99.90
19829;DHT22;10075;50.924;4.396;2024-02-04T03:21:49;11.50;99.90
19829;DHT22;10075;50.924;4.396;2024-02-04T03:24:16;11.40;99.90
19829;DHT22;10075;50.924;4.396;2024-02-04T03:26:43;11.50;99.90
19829;DHT22;10075;50.924;4.396;2024-02-04T03:29:10;11.50;99.90
19829;DHT22;10075;50.924;4.396;2024-02-04T03:31:38;11.50;99.90
19829;DHT22;10075;50.924;4.396;2024-02-04T03:34:05;11.60;99.90
19829;DHT22;10075;50.924;4.396;2024-02-04T03:36:32;11.50;99.90
19829;DHT22;10075;50.924;4.396;2024-02-04T03:38:59;11.50;99.90
19829;DHT22;10075;50.924;4.396;2024-02-04T03:41:26;11.50;99.90
19829;DHT22;10075;50.924;4.396;2024-02-04T03:43:52;11.40;99.90
19829;DHT22;10075;50.924;4.396;2024-02-04T03:46:20;11.50;99.90
19829;DHT22;10075;50.924;4.396;2024-02-04T03:48:49;11.50;99.90
19829;DHT22;10075;50.924;4.396;2024-02-04T03:51:16;11.60;99.90
19829;DHT22;10075;50.924;4.396;2024-02-04T03:53:44;11.40;99.90
19829;DHT22;10075;50.924;4.396;2024-02-04T03:56:11;11.50;99.90
19829;DHT22;10075;50.924;4.396;2024-02-04T03:58:38;11.50;99.90
19829;DHT22;10075;50.924;4.396;2024-02-04T04:01:05;11.50;99.90
19829;DHT22;10075;50.924;4.396;2024-02-04T04:03:32;11.40;99.90
19829;DHT22;10075;50.924;4.396;2024-02-04T04:06:00;11.40;99.90
19829;DHT22;10075;50.924;4.396;2024-02-04T04:08:27;11.50;99.90
19829;DHT22;10075;50.924;4.396;2024-02-04T04:10:54;11.50;99.90
19829;DHT22;10075;50.924;4.396;2024-02-04T04:13:20;11.50;99.90
19829;DHT22;10075;50.924;4.396;2024-02-04T04:15:47;11.50;99.90
19829;DHT22;10075;50.924;4.396;2024-02-04T04:18:14;11.60;99.90
19829;DHT22;10075;50.924;4.396;2024-02-04T04:20:41;11.70;99.90
19829;DHT22;10075;50.924;4.396;2024-02-04T04:23:10;11.70;99.90
19829;DHT22;10075;50.924;4.396;2024-02-04T04:25:36;11.70;99.90
19829;DHT22;10075;50.924;4.396;2024-02-04T04:28:04;11.70;99.90
19829;DHT22;10075;50.924;4.396;2024-02-04T04:30:31;11.70;99.90
19829;DHT22;10075;50.924;4.396;2024-02-04T04:32:57;11.80;99.90
19829;DHT22;10075;50.924;4.396;2024-02-04T04:35:25;11.80;99.90
19829;DHT22;10075;50.924;4.396;2024-02-04T04:37:51;11.70;99.90
19829;DHT22;10075;50.924;4.396;2024-02-04T04:40:20;11.70;99.90
19829;DHT22;10075;50.924;4.396;2024-02-04T04:42:47;11.60;99.90
19829;DHT22;10075;50.924;4.396;2024-02-04T04:45:14;11.70;99.90
19829;DHT22;10075;50.924;4.396;2024-02-04T04:47:41;11.80;99.90
19829;DHT22;10075;50.924;4.396;2024-02-04T04:50:08;11.70;99.90
19829;DHT22;10075;50.924;4.396;2024-02-04T04:52:35;11.70;99.90
19829;DHT22;10075;50.924;4.396;2024-02-04T04:55:02;11.60;99.90
19829;DHT22;10075;50.924;4.396;2024-02-04T04:57:31;11.60;99.90
19829;DHT22;10075;50.924;4.396;2024-02-04T04:59:58;11.50;99.90
19829;DHT22;10075;50.924;4.396;2024-02-04T05:02:29;11.70;99.90
19829;DHT22;10075;50.924;4.396;2024-02-04T05:04:56;11.60;99.90
19829;DHT22;10075;50.924;4.396;2024-02-04T05:07:23;11.70;99.90
19829;DHT22;10075;50.924;4.396;2024-02-04T05:09:50;11.70;99.90
19829;DHT22;10075;50.924;4.396;2024-02-04T05:12:17;11.70;99.90
19829;DHT22;10075;50.924;4.396;2024-02-04T05:14:45;11.70;99.90
19829;DHT22;10075;50.924;4.396;2024-02-04T05:17:12;11.70;99.90
19829;DHT22;10075;50.924;4.396;2024-02-04T05:19:41;11.60;99.90
19829;DHT22;10075;50.924;4.396;2024-02-04T05:22:08;11.50;99.90
19829;DHT22;10075;50.924;4.396;2024-02-04T05:24:35;11.60;99.90
19829;DHT22;10075;50.924;4.396;2024-02-04T05:27:02;11.60;99.90
19829;DHT22;10075;50.924;4.396;2024-02-04T05:29:29;11.60;99.90
19829;DHT22;10075;50.924;4.396;2024-02-04T05:31:58;11.70;99.90
19829;DHT22;10075;50.924;4.396;2024-02-04T05:34:25;11.70;99.90
19829;DHT22;10075;50.924;4.396;2024-02-04T05:36:52;11.90;99.90
19829;DHT22;10075;50.924;4.396;2024-02-04T05:39:19;11.80;99.90
19829;DHT22;10075;50.924;4.396;2024-02-04T05:41:45;11.70;99.90
19829;DHT22;10075;50.924;4.396;2024-02-04T05:44:12;11.60;99.90
19829;DHT22;10075;50.924;4.396;2024-02-04T05:46:39;11.50;99.90
19829;DHT22;10075;50.924;4.396;2024-02-04T05:49:08;11.60;99.90
19829;DHT22;10075;50.924;4.396;2024-02-04T05:51:38;11.60;99.90
19829;DHT22;10075;50.924;4.396;2024-02-04T05:54:05;11.60;99.90
19829;DHT22;10075;50.924;4.396;2024-02-04T05:56:32;11.40;99.90
19829;DHT22;10075;50.924;4.396;2024-02-04T05:58:59;11.40;99.90
19829;DHT22;10075;50.924;4.396;2024-02-04T06:01:29;11.40;99.90
19829;DHT22;10075;50.924;4.396;2024-02-04T06:03:55;11.40;99.90
19829;DHT22;10075;50.924;4.396;2024-02-04T06:06:24;11.60;99.90
19829;DHT22;10075;50.924;4.396;2024-02-04T06:08:52;11.70;99.90
19829;DHT22;10075;50.924;4.396;2024-02-04T06:11:19;11.60;99.90
19829;DHT22;10075;50.924;4.396;2024-02-04T06:13:46;11.60;99.90
19829;DHT22;10075;50.924;4.396;2024-02-04T06:16:13;11.60;99.90
19829;DHT22;10075;50.924;4.396;2024-02-04T06:18:40;11.60;99.90
19829;DHT22;10075;50.924;4.396;2024-02-04T06:21:07;11.50;99.90
19829;DHT22;10075;50.924;4.396;2024-02-04T06:23:35;11.40;99.90
19829;DHT22;10075;50.924;4.396;2024-02-04T06:26:05;11.30;99.90
19829;DHT22;10075;50.924;4.396;2024-02-04T06:28:32;11.20;99.90
19829;DHT22;10075;50.924;4.396;2024-02-04T06:30:59;11.30;99.90
19829;DHT22;10075;50.924;4.396;2024-02-04T06:33:26;11.30;99.90
19829;DHT22;10075;50.924;4.396;2024-02-04T06:35:53;11.20;99.90
19829;DHT22;10075;50.924;4.396;2024-02-04T06:38:20;11.20;99.90
19829;DHT22;10075;50.924;4.396;2024-02-04T06:40:48;11.20;99.90
19829;DHT22;10075;50.924;4.396;2024-02-04T06:43:15;11.30;99.90
19829;DHT22;10075;50.924;4.396;2024-02-04T06:45:42;11.20;99.90
19829;DHT22;10075;50.924;4.396;2024-02-04T06:48:09;11.10;99.90
19829;DHT22;10075;50.924;4.396;2024-02-04T06:50:36;11.20;99.90
19829;DHT22;10075;50.924;4.396;2024-02-04T06:53:03;11.30;99.90
19829;DHT22;10075;50.924;4.396;2024-02-04T06:55:30;11.20;99.90
19829;DHT22;10075;50.924;4.396;2024-02-04T06:57:59;11.30;99.90
19829;DHT22;10075;50.924;4.396;2024-02-04T07:00:26;11.30;99.90
19829;DHT22;10075;50.924;4.396;2024-02-04T07:02:52;11.30;99.90
19829;DHT22;10075;50.924;4.396;2024-02-04T07:05:20;11.30;99.90
19829;DHT22;10075;50.924;4.396;2024-02-04T07:07:48;11.30;99.90
19829;DHT22;10075;50.924;4.396;2024-02-04T07:10:15;11.30;99.90
19829;DHT22;10075;50.924;4.396;2024-02-04T07:12:44;11.40;99.90
19829;DHT22;10075;50.924;4.396;2024-02-04T07:15:13;11.30;99.90
19829;DHT22;10075;50.924;4.396;2024-02-04T07:17:40;11.30;99.90
19829;DHT22;10075;50.924;4.396;2024-02-04T07:20:07;11.10;99.90
19829;DHT22;10075;50.924;4.396;2024-02-04T07:22:35;11.20;99.90
19829;DHT22;10075;50.924;4.396;2024-02-04T07:25:02;11.20;99.90
19829;DHT22;10075;50.924;4.396;2024-02-04T07:27:30;11.40;99.90
19829;DHT22;10075;50.924;4.396;2024-02-04T07:29:57;11.20;99.90
19829;DHT22;10075;50.924;4.396;2024-02-04T07:32:25;11.20;99.90
19829;DHT22;10075;50.924;4.396;2024-02-04T07:34:52;11.30;99.90
19829;DHT22;10075;50.924;4.396;2024-02-04T07:37:19;11.40;99.90
19829;DHT22;10075;50.924;4.396;2024-02-04T07:39:46;11.30;99.90
19829;DHT22;10075;50.924;4.396;2024-02-04T07:42:13;11.40;99.90
19829;DHT22;10075;50.924;4.396;2024-02-04T07:44:40;11.40;99.90
19829;DHT22;10075;50.924;4.396;2024-02-04T07:47:07;11.40;99.90
19829;DHT22;10075;50.924;4.396;2024-02-04T07:49:35;11.30;99.90
19829;DHT22;10075;50.924;4.396;2024-02-04T07:52:03;11.30;99.90
19829;DHT22;10075;50.924;4.396;2024-02-04T07:54:30;11.40;99.90
19829;DHT22;10075;50.924;4.396;2024-02-04T07:56:57;11.40;99.90
19829;DHT22;10075;50.924;4.396;2024-02-04T07:59:24;11.40;99.90
19829;DHT22;10075;50.924;4.396;2024-02-04T08:01:51;11.40;99.90
19829;DHT22;10075;50.924;4.396;2024-02-04T08:04:18;11.50;99.90
19829;DHT22;10075;50.924;4.396;2024-02-04T08:06:46;11.60;99.90
19829;DHT22;10075;50.924;4.396;2024-02-04T08:09:13;11.60;99.90
19829;DHT22;10075;50.924;4.396;2024-02-04T08:11:40;11.60;99.90
19829;DHT22;10075;50.924;4.396;2024-02-04T08:14:07;11.50;99.90
19829;DHT22;10075;50.924;4.396;2024-02-04T08:16:34;11.50;99.90
19829;DHT22;10075;50.924;4.396;2024-02-04T08:19:03;11.50;99.90
19829;DHT22;10075;50.924;4.396;2024-02-04T08:21:32;11.70;99.90
19829;DHT22;10075;50.924;4.396;2024-02-04T08:24:00;11.60;99.90
19829;DHT22;10075;50.924;4.396;2024-02-04T08:26:28;11.50;99.90
19829;DHT22;10075;50.924;4.396;2024-02-04T08:28:55;11.50;99.90
19829;DHT22;10075;50.924;4.396;2024-02-04T08:31:22;11.60;99.90
19829;DHT22;10075;50.924;4.396;2024-02-04T08:33:49;11.50;99.90
19829;DHT22;10075;50.924;4.396;2024-02-04T08:36:16;11.50;99.90
19829;DHT22;10075;50.924;4.396;2024-02-04T08:38:43;11.50;99.90
19829;DHT22;10075;50.924;4.396;2024-02-04T08:41:11;11.50;99.90
19829;DHT22;10075;50.924;4.396;2024-02-04T08:43:38;11.60;99.90
19829;DHT22;10075;50.924;4.396;2024-02-04T08:46:05;11.70;99.90
19829;DHT22;10075;50.924;4.396;2024-02-04T08:48:32;11.60;99.90
19829;DHT22;10075;50.924;4.396;2024-02-04T08:50:59;11.60;99.90
19829;DHT22;10075;50.924;4.396;2024-02-04T08:53:26;11.70;99.90
19829;DHT22;10075;50.924;4.396;2024-02-04T08:55:53;11.80;99.90
19829;DHT22;10075;50.924;4.396;2024-02-04T08:58:22;12.00;99.90
19829;DHT22;10075;50.924;4.396;2024-02-04T09:00:49;12.00;99.90
19829;DHT22;10075;50.924;4.396;2024-02-04T09:03:16;12.00;99.90
19829;DHT22;10075;50.924;4.396;2024-02-04T09:05:43;12.00;99.90
19829;DHT22;10075;50.924;4.396;2024-02-04T09:08:10;11.90;99.90
19829;DHT22;10075;50.924;4.396;2024-02-04T09:10:37;12.00;99.90
19829;DHT22;10075;50.924;4.396;2024-02-04T09:13:04;12.00;99.90
19829;DHT22;10075;50.924;4.396;2024-02-04T09:15:32;12.10;99.90
19829;DHT22;10075;50.924;4.396;2024-02-04T09:17:59;12.10;99.90
19829;DHT22;10075;50.924;4.396;2024-02-04T09:20:26;12.00;99.90
19829;DHT22;10075;50.924;4.396;2024-02-04T09:22:53;12.10;99.90
19829;DHT22;10075;50.924;4.396;2024-02-04T09:25:20;12.20;99.90
19829;DHT22;10075;50.924;4.396;2024-02-04T09:27:47;12.20;99.90
19829;DHT22;10075;50.924;4.396;2024-02-04T09:30:14;12.20;99.90
19829;DHT22;10075;50.924;4.396;2024-02-04T09:32:43;12.10;99.90
19829;DHT22;10075;50.924;4.396;2024-02-04T09:35:10;12.00;99.90
19829;DHT22;10075;50.924;4.396;2024-02-04T09:37:37;11.90;99.90
19829;DHT22;10075;50.924;4.396;2024-02-04T09:40:05;11.90;99.90
19829;DHT22;10075;50.924;4.396;2024-02-04T09:42:40;12.00;99.90
19829;DHT22;10075;50.924;4.396;2024-02-04T09:45:10;12.10;99.90
19829;DHT22;10075;50.924;4.396;2024-02-04T09:47:40;12.00;99.90
19829;DHT22;10075;50.924;4.396;2024-02-04T09:50:10;12.10;99.90
19829;DHT22;10075;50.924;4.396;2024-02-04T09:52:40;12.10;99.90
19829;DHT22;10075;50.924;4.396;2024-02-04T09:55:07;12.10;99.90
19829;DHT22;10075;50.924;4.396;2024-02-04T09:57:38;12.20;99.90
19829;DHT22;10075;50.924;4.396;2024-02-04T10:00:10;12.00;99.90
19829;DHT22;10075;50.924;4.396;2024-02-04T10:02:37;12.00;99.90
19829;DHT22;10075;50.924;4.396;2024-02-04T10:05:04;12.00;99.90
19829;DHT22;10075;50.924;4.396;2024-02-04T10:07:33;12.00;99.90
19829;DHT22;10075;50.924;4.396;2024-02-04T10:10:01;12.10;99.90
19829;DHT22;10075;50.924;4.396;2024-02-04T10:12:28;12.20;99.90
19829;DHT22;10075;50.924;4.396;2024-02-04T10:14:55;12.20;99.90
19829;DHT22;10075;50.924;4.396;2024-02-04T10:17:22;12.20;99.90
19829;DHT22;10075;50.924;4.396;2024-02-04T10:19:49;12.10;99.90
19829;DHT22;10075;50.924;4.396;2024-02-04T10:22:16;12.20;99.90
19829;DHT22;10075;50.924;4.396;2024-02-04T10:24:45;12.30;99.90
19829;DHT22;10075;50.924;4.396;2024-02-04T10:27:15;12.40;99.90
19829;DHT22;10075;50.924;4.396;2024-02-04T10:29:42;12.40;99.90
19829;DHT22;10075;50.924;4.396;2024-02-04T10:32:09;12.30;99.90
19829;DHT22;10075;50.924;4.396;2024-02-04T10:34:37;12.50;99.90
19829;DHT22;10075;50.924;4.396;2024-02-04T10:37:04;12.70;99.90
19829;DHT22;10075;50.924;4.396;2024-02-04T10:39:31;12.60;99.90
19829;DHT22;10075;50.924;4.396;2024-02-04T10:42:02;12.70;99.90
19829;DHT22;10075;50.924;4.396;2024-02-04T10:44:35;12.80;99.90
19829;DHT22;10075;50.924;4.396;2024-02-04T10:47:05;12.70;99.90
19829;DHT22;10075;50.924;4.396;2024-02-04T10:49:34;12.70;99.90
19829;DHT22;10075;50.924;4.396;2024-02-04T10:52:07;12.70;99.90
19829;DHT22;10075;50.924;4.396;2024-02-04T10:54:35;12.50;99.90
19829;DHT22;10075;50.924;4.396;2024-02-04T10:57:11;12.60;99.90
19829;DHT22;10075;50.924;4.396;2024-02-04T10:59:39;12.50;99.90
19829;DHT22;10075;50.924;4.396;2024-02-04T11:02:06;12.50;99.90
19829;DHT22;10075;50.924;4.396;2024-02-04T11:04:34;12.60;99.90
19829;DHT22;10075;50.924;4.396;2024-02-04T11:07:03;12.60;99.90
19829;DHT22;10075;50.924;4.396;2024-02-04T11:09:31;12.70;99.90
19829;DHT22;10075;50.924;4.396;2024-02-04T11:11:59;12.90;99.90
19829;DHT22;10075;50.924;4.396;2024-02-04T11:14:30;12.70;99.90
19829;DHT22;10075;50.924;4.396;2024-02-04T11:17:13;12.60;99.90
19829;DHT22;10075;50.924;4.396;2024-02-04T11:19:53;12.60;99.90
19829;DHT22;10075;50.924;4.396;2024-02-04T11:22:38;12.40;99.90
19829;DHT22;10075;50.924;4.396;2024-02-04T11:28:16;12.50;99.90
19829;DHT22;10075;50.924;4.396;2024-02-04T11:30:47;12.60;99.90
19829;DHT22;10075;50.924;4.396;2024-02-04T11:33:18;12.70;99.90
19829;DHT22;10075;50.924;4.396;2024-02-04T11:35:45;12.80;99.90
19829;DHT22;10075;50.924;4.396;2024-02-04T11:38:17;12.60;99.90
19829;DHT22;10075;50.924;4.396;2024-02-04T11:40:45;12.50;99.90
19829;DHT22;10075;50.924;4.396;2024-02-04T11:43:14;12.40;99.90
19829;DHT22;10075;50.924;4.396;2024-02-04T11:45:42;12.40;99.90
19829;DHT22;10075;50.924;4.396;2024-02-04T11:48:11;12.60;99.90
19829;DHT22;10075;50.924;4.396;2024-02-04T11:50:38;12.60;99.90
19829;DHT22;10075;50.924;4.396;2024-02-04T11:53:06;12.60;99.90
19829;DHT22;10075;50.924;4.396;2024-02-04T11:55:34;12.60;99.90
19829;DHT22;10075;50.924;4.396;2024-02-04T11:58:01;12.60;99.90
19829;DHT22;10075;50.924;4.396;2024-02-04T12:00:29;12.60;99.90
19829;DHT22;10075;50.924;4.396;2024-02-04T12:03:01;12.50;99.90
19829;DHT22;10075;50.924;4.396;2024-02-04T12:05:32;12.50;99.90
19829;DHT22;10075;50.924;4.396;2024-02-04T12:08:01;12.40;99.90
19829;DHT22;10075;50.924;4.396;2024-02-04T12:10:30;12.40;99.90
19829;DHT22;10075;50.924;4.396;2024-02-04T12:12:57;12.40;99.90
19829;DHT22;10075;50.924;4.396;2024-02-04T12:15:27;12.20;99.90
19829;DHT22;10075;50.924;4.396;2024-02-04T12:17:55;12.20;99.90
19829;DHT22;10075;50.924;4.396;2024-02-04T12:20:22;12.20;99.90
19829;DHT22;10075;50.924;4.396;2024-02-04T12:22:51;12.30;99.90
19829;DHT22;10075;50.924;4.396;2024-02-04T12:25:18;12.40;99.90
19829;DHT22;10075;50.924;4.396;2024-02-04T12:27:45;12.20;99.90
19829;DHT22;10075;50.924;4.396;2024-02-04T12:30:14;12.20;99.90
19829;DHT22;10075;50.924;4.396;2024-02-04T12:32:41;12.20;99.90
19829;DHT22;10075;50.924;4.396;2024-02-04T12:35:13;12.30;99.90
19829;DHT22;10075;50.924;4.396;2024-02-04T12:37:51;12.20;99.90
19829;DHT22;10075;50.924;4.396;2024-02-04T12:40:21;12.20;99.90
19829;DHT22;10075;50.924;4.396;2024-02-04T12:42:53;12.20;99.90
19829;DHT22;10075;50.924;4.396;2024-02-04T12:45:20;12.30;99.90
19829;DHT22;10075;50.924;4.396;2024-02-04T12:47:50;12.40;99.90
19829;DHT22;10075;50.924;4.396;2024-02-04T12:50:17;12.40;99.90
19829;DHT22;10075;50.924;4.396;2024-02-04T12:52:45;12.50;99.90
19829;DHT22;10075;50.924;4.396;2024-02-04T12:55:25;12.60;99.90
19829;DHT22;10075;50.924;4.396;2024-02-04T12:58:02;12.70;99.90
19829;DHT22;10075;50.924;4.396;2024-02-04T13:00:30;12.80;99.90
19829;DHT22;10075;50.924;4.396;2024-02-04T13:02:57;12.90;99.90
19829;DHT22;10075;50.924;4.396;2024-02-04T13:05:24;12.80;99.90
19829;DHT22;10075;50.924;4.396;2024-02-04T13:07:53;12.70;99.90
19829;DHT22;10075;50.924;4.396;2024-02-04T13:10:23;12.80;99.90
19829;DHT22;10075;50.924;4.396;2024-02-04T13:13:03;12.90;99.90
19829;DHT22;10075;50.924;4.396;2024-02-04T13:15:39;13.00;99.90
19829;DHT22;10075;50.924;4.396;2024-02-04T13:18:08;13.00;99.90
19829;DHT22;10075;50.924;4.396;2024-02-04T13:20:37;12.90;99.90
19829;DHT22;10075;50.924;4.396;2024-02-04T13:23:06;12.80;99.90
19829;DHT22;10075;50.924;4.396;2024-02-04T13:25:35;12.60;99.90
19829;DHT22;10075;50.924;4.396;2024-02-04T13:28:02;12.50;99.90
19829;DHT22;10075;50.924;4.396;2024-02-04T13:30:29;12.50;99.90
19829;DHT22;10075;50.924;4.396;2024-02-04T13:32:56;12.70;99.90
19829;DHT22;10075;50.924;4.396;2024-02-04T13:35:24;12.70;99.90
19829;DHT22;10075;50.924;4.396;2024-02-04T13:37:51;12.70;99.90
19829;DHT22;10075;50.924;4.396;2024-02-04T13:40:19;12.70;99.90
19829;DHT22;10075;50.924;4.396;2024-02-04T13:42:47;12.70;99.90
19829;DHT22;10075;50.924;4.396;2024-02-04T13:45:15;12.50;99.90
19829;DHT22;10075;50.924;4.396;2024-02-04T13:47:42;12.60;99.90
19829;DHT22;10075;50.924;4.396;2024-02-04T13:50:10;12.70;99.90
19829;DHT22;10075;50.924;4.396;2024-02-04T13:52:38;12.80;99.90
19829;DHT22;10075;50.924;4.396;2024-02-04T13:55:06;12.90;99.90
19829;DHT22;10075;50.924;4.396;2024-02-04T13:57:33;12.90;99.90
19829;DHT22;10075;50.924;4.396;2024-02-04T14:00:02;12.70;99.90
19829;DHT22;10075;50.924;4.396;2024-02-04T14:02:30;12.70;99.90
19829;DHT22;10075;50.924;4.396;2024-02-04T14:04:57;12.60;99.90
19829;DHT22;10075;50.924;4.396;2024-02-04T14:07:25;12.60;99.90
19829;DHT22;10075;50.924;4.396;2024-02-04T14:09:52;12.60;99.90
19829;DHT22;10075;50.924;4.396;2024-02-04T14:12:21;12.70;99.90
19829;DHT22;10075;50.924;4.396;2024-02-04T14:14:49;12.60;99.90
19829;DHT22;10075;50.924;4.396;2024-02-04T14:17:17;12.50;99.90
19829;DHT22;10075;50.924;4.396;2024-02-04T14:19:44;12.60;99.90
19829;DHT22;10075;50.924;4.396;2024-02-04T14:22:14;12.60;99.90
19829;DHT22;10075;50.924;4.396;2024-02-04T14:24:42;12.60;99.90
19829;DHT22;10075;50.924;4.396;2024-02-04T14:27:11;12.60;99.90
19829;DHT22;10075;50.924;4.396;2024-02-04T14:29:38;12.70;99.90
19829;DHT22;10075;50.924;4.396;2024-02-04T14:32:05;12.80;99.90
19829;DHT22;10075;50.924;4.396;2024-02-04T14:34:34;12.70;99.90
19829;DHT22;10075;50.924;4.396;2024-02-04T14:37:01;12.80;99.90
19829;DHT22;10075;50.924;4.396;2024-02-04T14:39:28;12.80;99.90
19829;DHT22;10075;50.924;4.396;2024-02-04T14:41:57;12.80;99.90
19829;DHT22;10075;50.924;4.396;2024-02-04T14:44:24;12.70;99.90
19829;DHT22;10075;50.924;4.396;2024-02-04T14:46:51;12.60;99.90
19829;DHT22;10075;50.924;4.396;2024-02-04T14:49:18;12.60;99.90
19829;DHT22;10075;50.924;4.396;2024-02-04T14:51:48;12.60;99.90
19829;DHT22;10075;50.924;4.396;2024-02-04T14:54:16;12.70;99.90
19829;DHT22;10075;50.924;4.396;2024-02-04T14:56:44;12.80;99.90
19829;DHT22;10075;50.924;4.396;2024-02-04T14:59:13;12.70;99.90
19829;DHT22;10075;50.924;4.396;2024-02-04T15:01:44;12.80;99.90
19829;DHT22;10075;50.924;4.396;2024-02-04T15:04:11;12.80;99.90
19829;DHT22;10075;50.924;4.396;2024-02-04T15:06:39;12.70;99.90
19829;DHT22;10075;50.924;4.396;2024-02-04T15:09:08;12.60;99.90
19829;DHT22;10075;50.924;4.396;2024-02-04T15:11:38;12.50;99.90
19829;DHT22;10075;50.924;4.396;2024-02-04T15:14:05;12.50;99.90
19829;DHT22;10075;50.924;4.396;2024-02-04T15:16:34;12.50;99.90
19829;DHT22;10075;50.924;4.396;2024-02-04T15:19:05;12.50;99.90
19829;DHT22;10075;50.924;4.396;2024-02-04T15:21:32;12.50;99.90
19829;DHT22;10075;50.924;4.396;2024-02-04T15:24:00;12.40;99.90
19829;DHT22;10075;50.924;4.396;2024-02-04T15:26:32;12.40;99.90
19829;DHT22;10075;50.924;4.396;2024-02-04T15:29:00;12.30;99.90
19829;DHT22;10075;50.924;4.396;2024-02-04T15:31:28;12.40;99.90
19829;DHT22;10075;50.924;4.396;2024-02-04T15:33:56;12.40;99.90
19829;DHT22;10075;50.924;4.396;2024-02-04T15:36:23;12.30;99.90
19829;DHT22;10075;50.924;4.396;2024-02-04T15:38:51;12.30;99.90